createdAt,value
2018-06-25T00:00:23.511Z,13.90
2018-06-25T00:10:24.787Z,13.80
2018-06-25T00:20:26.051Z,13.90
2018-06-25T00:30:27.299Z,13.90
2018-06-25T00:40:28.568Z,13.80
2018-06-25T00:50:29.820Z,13.90
2018-06-25T01:00:31.190Z,13.70
2018-06-25T01:10:32.438Z,13.50
2018-06-25T01:20:33.712Z,13.60
2018-06-25T01:30:34.969Z,13.50
2018-06-25T01:40:36.238Z,13.40
2018-06-25T01:50:37.513Z,13.40
2018-06-25T02:00:38.753Z,13.40
2018-06-25T02:10:40.039Z,13.40
2018-06-25T02:20:41.290Z,13.40
2018-06-25T02:30:42.645Z,13.40
2018-06-25T02:40:43.919Z,13.30
2018-06-25T02:50:45.192Z,13.10
2018-06-25T03:00:46.446Z,13.20
2018-06-25T03:10:47.734Z,13.20
2018-06-25T03:20:49.788Z,13.20
2018-06-25T03:30:51.039Z,13.20
2018-06-25T03:40:52.311Z,13.20
2018-06-25T03:50:53.571Z,13.10
2018-06-25T04:00:54.891Z,13.30
2018-06-25T04:10:56.168Z,13.20
2018-06-25T04:31:08.855Z,13.20
2018-06-25T04:41:10.892Z,13.30
2018-06-25T04:51:12.167Z,13.30
2018-06-25T05:01:14.222Z,13.60
2018-06-25T05:11:15.544Z,13.60
2018-06-25T05:21:16.831Z,13.50
2018-06-25T05:31:18.115Z,13.70
2018-06-25T05:41:19.393Z,13.80
2018-06-25T05:51:20.667Z,14.20
2018-06-25T06:01:22.720Z,14.40
2018-06-25T06:11:23.986Z,14.40
2018-06-25T06:21:26.015Z,15.10
2018-06-25T06:31:27.317Z,15.00
2018-06-25T06:41:28.595Z,15.20
2018-06-25T06:51:29.889Z,15.50
2018-06-25T07:01:31.894Z,15.40
2018-06-25T07:11:33.943Z,16.20
2018-06-25T07:21:35.211Z,16.20
2018-06-25T07:31:36.487Z,16.90
2018-06-25T07:41:37.751Z,18.20
2018-06-25T07:51:39.031Z,18.80
2018-06-25T08:01:40.299Z,20.90
2018-06-25T08:11:44.626Z,23.40
2018-06-25T08:21:45.890Z,26.20
2018-06-25T08:31:47.167Z,29.90
2018-06-25T08:41:48.437Z,26.40
2018-06-25T08:51:50.527Z,27.50
2018-06-25T09:01:51.769Z,27.50
2018-06-25T09:11:53.039Z,25.50
2018-06-25T09:21:55.072Z,20.40
2018-06-25T09:31:56.357Z,20.20
2018-06-25T09:41:58.390Z,20.50
2018-06-25T09:51:59.654Z,20.40
2018-06-25T10:02:01.694Z,28.10
2018-06-25T10:12:02.963Z,28.00
2018-06-25T10:22:04.991Z,21.30
2018-06-25T10:32:06.263Z,21.20
2018-06-25T10:42:08.326Z,19.40
2018-06-25T10:52:09.563Z,19.30
2018-06-25T11:02:10.839Z,18.20
2018-06-25T11:12:12.103Z,17.80
2018-06-25T11:22:13.415Z,17.60
2018-06-25T11:32:14.682Z,18.20
2018-06-25T11:42:16.798Z,18.60
2018-06-25T11:52:18.061Z,18.60
2018-06-25T12:02:20.116Z,19.00
2018-06-25T12:12:21.388Z,19.00
2018-06-25T12:22:22.670Z,19.30
2018-06-25T12:32:23.942Z,20.00
2018-06-25T12:42:25.227Z,18.90
2018-06-25T12:52:26.499Z,18.60
2018-06-25T13:02:27.769Z,17.70
2018-06-25T13:12:29.031Z,17.60
2018-06-25T13:22:30.286Z,18.50
2018-06-25T13:32:31.546Z,19.80
2018-06-25T13:42:33.590Z,19.70
2018-06-25T13:52:34.850Z,19.70
2018-06-25T14:02:36.891Z,18.80
2018-06-25T14:12:38.162Z,18.80
2018-06-25T14:22:39.429Z,18.80
2018-06-25T14:32:40.704Z,18.30
2018-06-25T14:42:41.974Z,18.50
2018-06-25T14:52:43.240Z,18.10
2018-06-25T15:02:45.293Z,20.60
2018-06-25T15:12:46.570Z,20.60
2018-06-25T15:22:47.835Z,20.70
2018-06-25T15:32:49.071Z,20.20
2018-06-25T15:42:50.322Z,20.40
2018-06-25T15:52:51.579Z,19.20
2018-06-25T16:02:52.823Z,18.80
2018-06-25T16:12:54.877Z,18.20
2018-06-25T16:22:56.127Z,18.20
2018-06-25T16:32:57.373Z,18.00
2018-06-25T16:42:58.626Z,18.40
2018-06-25T16:53:00.640Z,18.00
2018-06-25T17:03:02.688Z,17.60
2018-06-25T17:13:03.939Z,17.60
2018-06-25T17:23:05.962Z,17.30
2018-06-25T17:33:08.003Z,17.00
2018-06-25T17:43:09.242Z,16.90
2018-06-25T17:53:10.522Z,16.70
2018-06-25T18:03:11.771Z,16.40
2018-06-25T18:13:13.049Z,16.20
2018-06-25T18:23:15.055Z,15.40
2018-06-25T18:33:16.313Z,15.40
2018-06-25T18:43:17.584Z,15.10
2018-06-25T18:53:18.857Z,14.80
2018-06-25T19:03:20.888Z,14.30
2018-06-25T19:13:22.141Z,14.30
2018-06-25T19:23:23.394Z,14.00
2018-06-25T19:43:31.403Z,13.90
2018-06-25T19:53:32.672Z,13.80
2018-06-25T20:03:35.226Z,13.70
2018-06-25T20:13:36.502Z,13.70
2018-06-25T20:43:51.820Z,13.50
2018-06-25T20:53:53.078Z,13.30
2018-06-25T21:03:54.353Z,13.20
2018-06-25T21:13:55.617Z,13.10
2018-06-25T21:23:56.856Z,13.10
2018-06-25T21:34:03.118Z,13.10
2018-06-25T21:44:04.363Z,13.10
2018-06-25T21:54:05.634Z,13.10
2018-06-25T22:04:07.662Z,13.00
2018-06-25T22:14:08.908Z,12.90
2018-06-25T22:24:10.182Z,12.80
2018-06-25T22:34:11.450Z,12.80
2018-06-25T22:44:12.728Z,12.80
2018-06-25T22:54:14.755Z,12.60
2018-06-25T23:04:16.024Z,12.60
2018-06-25T23:14:17.315Z,12.50
2018-06-25T23:44:33.144Z,12.60
2018-06-25T23:54:34.435Z,12.60
